sensor_id;sensor_type;location;lat;lon;timestamp;pressure;altitude;pressure_sealevel;temperature;humidity
56604;BME280;42486;47.478;19.036;2022-09-12T00:00:18;100034.22;;;14.93;88.97
56604;BME280;42486;47.478;19.036;2022-09-12T00:03:22;100036.16;;;14.91;88.62
56604;BME280;42486;47.478;19.036;2022-09-12T00:06:25;100022.50;;;14.87;88.54
56604;BME280;42486;47.478;19.036;2022-09-12T00:09:28;100035.78;;;14.86;88.65
56604;BME280;42486;47.478;19.036;2022-09-12T00:12:33;100032.84;;;14.89;88.71
56604;BME280;42486;47.478;19.036;2022-09-12T00:15:39;100029.56;;;14.87;88.90
56604;BME280;42486;47.478;19.036;2022-09-12T00:18:43;100022.53;;;14.78;89.25
56604;BME280;42486;47.478;19.036;2022-09-12T00:21:49;100032.78;;;14.81;89.20
56604;BME280;42486;47.478;19.036;2022-09-12T00:24:53;100031.44;;;14.77;89.28
56604;BME280;42486;47.478;19.036;2022-09-12T00:27:57;100030.06;;;14.72;89.71
56604;BME280;42486;47.478;19.036;2022-09-12T00:31:03;100034.78;;;14.69;89.90
56604;BME280;42486;47.478;19.036;2022-09-12T00:34:06;100027.19;;;14.66;89.83
56604;BME280;42486;47.478;19.036;2022-09-12T00:37:08;100029.66;;;14.67;89.51
56604;BME280;42486;47.478;19.036;2022-09-12T00:40:11;100033.97;;;14.68;89.59
56604;BME280;42486;47.478;19.036;2022-09-12T00:46:43;100040.34;;;14.66;89.95
56604;BME280;42486;47.478;19.036;2022-09-12T00:49:51;100033.28;;;14.66;90.19
56604;BME280;42486;47.478;19.036;2022-09-12T00:52:58;100024.19;;;14.61;90.40
56604;BME280;42486;47.478;19.036;2022-09-12T00:56:07;100033.87;;;14.60;90.53
56604;BME280;42486;47.478;19.036;2022-09-12T00:59:14;100029.44;;;14.61;90.72
56604;BME280;42486;47.478;19.036;2022-09-12T01:02:18;100027.94;;;14.58;91.04
56604;BME280;42486;47.478;19.036;2022-09-12T01:05:21;100026.81;;;14.61;91.29
56604;BME280;42486;47.478;19.036;2022-09-12T01:08:25;100035.53;;;14.51;91.62
56604;BME280;42486;47.478;19.036;2022-09-12T01:11:29;100034.88;;;14.49;91.82
56604;BME280;42486;47.478;19.036;2022-09-12T01:14:33;100037.06;;;14.54;92.04
56604;BME280;42486;47.478;19.036;2022-09-12T01:18:43;100039.88;;;14.52;92.53
56604;BME280;42486;47.478;19.036;2022-09-12T01:21:13;100036.25;;;14.44;92.84
56604;BME280;42486;47.478;19.036;2022-09-12T01:24:25;100037.25;;;14.43;92.64
56604;BME280;42486;47.478;19.036;2022-09-12T01:31:04;100026.03;;;14.41;92.39
56604;BME280;42486;47.478;19.036;2022-09-12T01:34:12;100022.44;;;14.42;91.98
56604;BME280;42486;47.478;19.036;2022-09-12T01:44:13;100027.72;;;14.42;91.00
56604;BME280;42486;47.478;19.036;2022-09-12T01:47:30;100025.75;;;14.44;91.28
56604;BME280;42486;47.478;19.036;2022-09-12T01:50:44;100035.59;;;14.42;91.54
56604;BME280;42486;47.478;19.036;2022-09-12T01:53:53;100025.81;;;14.34;92.74
56604;BME280;42486;47.478;19.036;2022-09-12T01:57:00;100031.34;;;14.31;93.19
56604;BME280;42486;47.478;19.036;2022-09-12T02:00:11;100025.84;;;14.24;94.05
56604;BME280;42486;47.478;19.036;2022-09-12T02:03:15;100026.13;;;14.21;94.15
56604;BME280;42486;47.478;19.036;2022-09-12T02:06:24;100020.59;;;14.24;93.73
56604;BME280;42486;47.478;19.036;2022-09-12T02:09:34;100018.34;;;14.29;93.33
56604;BME280;42486;47.478;19.036;2022-09-12T02:12:48;100026.91;;;14.31;93.17
56604;BME280;42486;47.478;19.036;2022-09-12T02:15:57;100021.25;;;14.36;92.73
56604;BME280;42486;47.478;19.036;2022-09-12T02:19:08;100027.63;;;14.34;92.75
56604;BME280;42486;47.478;19.036;2022-09-12T02:22:17;100035.19;;;14.37;92.85
56604;BME280;42486;47.478;19.036;2022-09-12T02:25:23;100031.06;;;14.34;92.98
56604;BME280;42486;47.478;19.036;2022-09-12T02:28:32;100030.06;;;14.35;93.43
56604;BME280;42486;47.478;19.036;2022-09-12T02:31:39;100030.66;;;14.29;94.08
56604;BME280;42486;47.478;19.036;2022-09-12T02:34:55;100036.34;;;14.24;94.80
56604;BME280;42486;47.478;19.036;2022-09-12T02:41:22;100036.53;;;14.13;96.30
56604;BME280;42486;47.478;19.036;2022-09-12T02:44:32;100042.19;;;14.18;96.57
56604;BME280;42486;47.478;19.036;2022-09-12T02:47:43;100020.78;;;14.13;97.76
56604;BME280;42486;47.478;19.036;2022-09-12T02:50:48;100033.37;;;14.09;98.79
56604;BME280;42486;47.478;19.036;2022-09-12T02:53:54;100032.00;;;14.05;99.44
56604;BME280;42486;47.478;19.036;2022-09-12T02:57:02;100033.22;;;14.01;99.98
56604;BME280;42486;47.478;19.036;2022-09-12T03:00:06;100042.38;;;13.97;100.00
56604;BME280;42486;47.478;19.036;2022-09-12T03:03:19;100036.31;;;13.97;100.00
56604;BME280;42486;47.478;19.036;2022-09-12T03:06:45;100038.88;;;14.06;100.00
56604;BME280;42486;47.478;19.036;2022-09-12T03:16:18;100044.84;;;13.99;99.67
56604;BME280;42486;47.478;19.036;2022-09-12T03:19:47;100053.03;;;13.96;99.54
56604;BME280;42486;47.478;19.036;2022-09-12T03:23:04;100049.44;;;13.97;98.26
56604;BME280;42486;47.478;19.036;2022-09-12T03:29:53;100050.97;;;13.99;97.72
56604;BME280;42486;47.478;19.036;2022-09-12T03:32:56;100048.16;;;14.10;97.75
56604;BME280;42486;47.478;19.036;2022-09-12T03:36:00;100050.37;;;14.05;96.15
56604;BME280;42486;47.478;19.036;2022-09-12T03:39:03;100040.84;;;14.04;96.03
56604;BME280;42486;47.478;19.036;2022-09-12T03:42:06;100048.62;;;13.96;96.46
56604;BME280;42486;47.478;19.036;2022-09-12T03:45:09;100057.03;;;14.00;96.46
56604;BME280;42486;47.478;19.036;2022-09-12T03:48:12;100049.44;;;13.97;96.52
56604;BME280;42486;47.478;19.036;2022-09-12T03:51:23;100046.81;;;13.87;97.22
56604;BME280;42486;47.478;19.036;2022-09-12T03:54:36;100059.97;;;13.87;97.16
56604;BME280;42486;47.478;19.036;2022-09-12T03:57:40;100061.88;;;13.85;97.61
56604;BME280;42486;47.478;19.036;2022-09-12T04:00:44;100064.13;;;13.80;97.70
56604;BME280;42486;47.478;19.036;2022-09-12T04:03:47;100068.13;;;13.74;98.42
56604;BME280;42486;47.478;19.036;2022-09-12T04:06:57;100070.63;;;13.76;98.16
56604;BME280;42486;47.478;19.036;2022-09-12T04:10:02;100061.66;;;13.69;98.46
56604;BME280;42486;47.478;19.036;2022-09-12T04:13:11;100064.00;;;13.72;98.68
56604;BME280;42486;47.478;19.036;2022-09-12T04:16:15;100048.94;;;13.64;98.36
56604;BME280;42486;47.478;19.036;2022-09-12T04:19:19;100058.47;;;13.65;98.03
56604;BME280;42486;47.478;19.036;2022-09-12T04:22:21;100061.81;;;13.67;97.74
56604;BME280;42486;47.478;19.036;2022-09-12T04:25:23;100056.81;;;13.74;98.06
56604;BME280;42486;47.478;19.036;2022-09-12T04:28:26;100058.44;;;13.75;96.94
56604;BME280;42486;47.478;19.036;2022-09-12T04:31:35;100054.72;;;13.77;96.19
56604;BME280;42486;47.478;19.036;2022-09-12T04:34:37;100061.34;;;13.81;94.97
56604;BME280;42486;47.478;19.036;2022-09-12T04:37:39;100059.44;;;13.83;95.44
56604;BME280;42486;47.478;19.036;2022-09-12T04:40:41;100059.25;;;13.85;95.53
56604;BME280;42486;47.478;19.036;2022-09-12T04:43:45;100066.84;;;13.88;94.82
56604;BME280;42486;47.478;19.036;2022-09-12T04:46:54;100059.44;;;13.83;95.69
56604;BME280;42486;47.478;19.036;2022-09-12T04:49:56;100066.75;;;13.80;95.56
56604;BME280;42486;47.478;19.036;2022-09-12T04:52:59;100071.88;;;13.81;95.86
56604;BME280;42486;47.478;19.036;2022-09-12T04:56:14;100071.72;;;13.83;95.43
56604;BME280;42486;47.478;19.036;2022-09-12T04:59:20;100082.34;;;13.91;95.60
56604;BME280;42486;47.478;19.036;2022-09-12T05:02:26;100078.19;;;13.98;94.98
56604;BME280;42486;47.478;19.036;2022-09-12T05:05:31;100083.19;;;13.92;95.24
56604;BME280;42486;47.478;19.036;2022-09-12T05:08:34;100088.56;;;14.00;96.01
56604;BME280;42486;47.478;19.036;2022-09-12T05:11:38;100088.16;;;13.95;95.59
56604;BME280;42486;47.478;19.036;2022-09-12T05:15:03;100094.50;;;14.02;95.11
56604;BME280;42486;47.478;19.036;2022-09-12T05:18:05;100092.94;;;14.09;95.48
56604;BME280;42486;47.478;19.036;2022-09-12T05:21:09;100086.69;;;14.20;95.34
56604;BME280;42486;47.478;19.036;2022-09-12T05:24:12;100096.38;;;14.29;94.05
56604;BME280;42486;47.478;19.036;2022-09-12T05:27:22;100099.41;;;14.34;92.21
56604;BME280;42486;47.478;19.036;2022-09-12T05:30:25;100100.31;;;14.43;91.02
56604;BME280;42486;47.478;19.036;2022-09-12T05:33:30;100103.22;;;14.49;90.72
56604;BME280;42486;47.478;19.036;2022-09-12T05:36:39;100107.34;;;14.62;88.76
56604;BME280;42486;47.478;19.036;2022-09-12T05:39:42;100105.88;;;14.77;88.04
56604;BME280;42486;47.478;19.036;2022-09-12T05:42:45;100110.81;;;14.90;87.26
56604;BME280;42486;47.478;19.036;2022-09-12T05:46:11;100114.75;;;15.04;86.45
56604;BME280;42486;47.478;19.036;2022-09-12T05:49:18;100109.78;;;15.18;85.35
56604;BME280;42486;47.478;19.036;2022-09-12T05:52:23;100115.63;;;15.40;83.41
56604;BME280;42486;47.478;19.036;2022-09-12T05:55:28;100120.34;;;15.54;82.75
56604;BME280;42486;47.478;19.036;2022-09-12T05:58:33;100111.84;;;15.43;82.55
56604;BME280;42486;47.478;19.036;2022-09-12T06:01:38;100123.28;;;15.51;82.54
56604;BME280;42486;47.478;19.036;2022-09-12T06:04:41;100118.84;;;15.52;82.67
56604;BME280;42486;47.478;19.036;2022-09-12T06:07:46;100122.31;;;15.70;83.24
56604;BME280;42486;47.478;19.036;2022-09-12T06:10:57;100119.69;;;15.88;80.28
56604;BME280;42486;47.478;19.036;2022-09-12T06:14:08;100119.69;;;15.88;80.57
56604;BME280;42486;47.478;19.036;2022-09-12T06:17:11;100114.41;;;15.88;80.37
56604;BME280;42486;47.478;19.036;2022-09-12T06:20:14;100121.25;;;15.81;81.71
56604;BME280;42486;47.478;19.036;2022-09-12T06:23:16;100125.00;;;15.96;79.77
56604;BME280;42486;47.478;19.036;2022-09-12T06:26:19;100139.13;;;16.13;79.57
56604;BME280;42486;47.478;19.036;2022-09-12T06:29:28;100128.53;;;17.67;71.98
56604;BME280;42486;47.478;19.036;2022-09-12T06:32:31;100136.28;;;19.44;63.45
56604;BME280;42486;47.478;19.036;2022-09-12T06:35:36;100138.56;;;20.54;59.37
56604;BME280;42486;47.478;19.036;2022-09-12T06:38:39;100150.78;;;20.84;57.67
56604;BME280;42486;47.478;19.036;2022-09-12T06:41:41;100147.03;;;23.27;49.11
56604;BME280;42486;47.478;19.036;2022-09-12T06:44:49;100154.97;;;24.02;46.63
56604;BME280;42486;47.478;19.036;2022-09-12T06:47:56;100151.53;;;26.20;41.66
56604;BME280;42486;47.478;19.036;2022-09-12T06:51:06;100157.81;;;25.50;42.25
56604;BME280;42486;47.478;19.036;2022-09-12T06:54:25;100161.00;;;27.33;38.84
56604;BME280;42486;47.478;19.036;2022-09-12T06:57:30;100152.97;;;27.44;38.41
56604;BME280;42486;47.478;19.036;2022-09-12T07:00:38;100167.16;;;28.41;36.86
56604;BME280;42486;47.478;19.036;2022-09-12T07:03:41;100162.72;;;29.10;34.67
56604;BME280;42486;47.478;19.036;2022-09-12T07:06:45;100163.88;;;27.19;38.08
56604;BME280;42486;47.478;19.036;2022-09-12T07:09:49;100155.53;;;26.72;38.33
56604;BME280;42486;47.478;19.036;2022-09-12T07:12:51;100159.53;;;24.93;42.48
56604;BME280;42486;47.478;19.036;2022-09-12T07:15:54;100156.69;;;22.86;47.58
56604;BME280;42486;47.478;19.036;2022-09-12T07:18:57;100156.59;;;24.09;45.15
56604;BME280;42486;47.478;19.036;2022-09-12T07:22:06;100151.44;;;24.28;44.42
56604;BME280;42486;47.478;19.036;2022-09-12T07:25:11;100148.34;;;23.71;44.85
56604;BME280;42486;47.478;19.036;2022-09-12T07:28:13;100156.31;;;22.55;47.30
56604;BME280;42486;47.478;19.036;2022-09-12T07:31:21;100163.03;;;21.15;51.30
56604;BME280;42486;47.478;19.036;2022-09-12T07:34:24;100159.72;;;20.24;54.40
56604;BME280;42486;47.478;19.036;2022-09-12T07:37:35;100166.06;;;19.23;58.79
56604;BME280;42486;47.478;19.036;2022-09-12T07:40:42;100169.09;;;19.11;59.53
56604;BME280;42486;47.478;19.036;2022-09-12T07:43:46;100165.59;;;18.71;60.73
56604;BME280;42486;47.478;19.036;2022-09-12T07:46:51;100169.91;;;18.81;61.80
56604;BME280;42486;47.478;19.036;2022-09-12T07:50:09;100167.75;;;18.76;62.12
56604;BME280;42486;47.478;19.036;2022-09-12T07:53:12;100164.62;;;18.56;62.16
56604;BME280;42486;47.478;19.036;2022-09-12T07:56:18;100160.69;;;18.52;63.06
56604;BME280;42486;47.478;19.036;2022-09-12T07:59:28;100166.81;;;18.53;61.40
56604;BME280;42486;47.478;19.036;2022-09-12T08:02:51;100159.50;;;18.63;58.92
56604;BME280;42486;47.478;19.036;2022-09-12T08:06:17;100165.28;;;18.75;58.88
56604;BME280;42486;47.478;19.036;2022-09-12T08:09:17;100165.87;;;18.93;58.87
56604;BME280;42486;47.478;19.036;2022-09-12T08:12:20;100172.09;;;19.08;57.96
56604;BME280;42486;47.478;19.036;2022-09-12T08:15:25;100172.28;;;19.38;57.61
56604;BME280;42486;47.478;19.036;2022-09-12T08:18:29;100170.13;;;19.42;57.60
56604;BME280;42486;47.478;19.036;2022-09-12T08:21:35;100164.16;;;19.71;56.34
56604;BME280;42486;47.478;19.036;2022-09-12T08:24:43;100162.50;;;19.70;55.05
56604;BME280;42486;47.478;19.036;2022-09-12T08:27:47;100161.69;;;19.61;55.89
56604;BME280;42486;47.478;19.036;2022-09-12T08:30:53;100170.94;;;19.73;55.17
56604;BME280;42486;47.478;19.036;2022-09-12T08:34:02;100163.97;;;19.41;57.56
56604;BME280;42486;47.478;19.036;2022-09-12T08:37:08;100162.06;;;19.58;57.64
56604;BME280;42486;47.478;19.036;2022-09-12T08:40:14;100170.22;;;19.79;56.28
56604;BME280;42486;47.478;19.036;2022-09-12T08:49:38;100168.63;;;19.62;54.77
56604;BME280;42486;47.478;19.036;2022-09-12T08:53:05;100168.59;;;19.70;55.71
56604;BME280;42486;47.478;19.036;2022-09-12T08:56:15;100161.34;;;19.64;56.78
56604;BME280;42486;47.478;19.036;2022-09-12T08:59:17;100156.44;;;19.84;55.72
56604;BME280;42486;47.478;19.036;2022-09-12T09:05:48;100157.62;;;19.96;54.47
56604;BME280;42486;47.478;19.036;2022-09-12T09:08:54;100157.22;;;20.08;54.46
56604;BME280;42486;47.478;19.036;2022-09-12T09:18:30;100161.75;;;20.37;53.44
56604;BME280;42486;47.478;19.036;2022-09-12T09:21:40;100154.34;;;20.47;54.69
56604;BME280;42486;47.478;19.036;2022-09-12T09:24:48;100145.13;;;20.58;54.05
56604;BME280;42486;47.478;19.036;2022-09-12T09:27:59;100151.97;;;20.82;52.67
56604;BME280;42486;47.478;19.036;2022-09-12T09:31:29;100160.31;;;20.94;51.92
56604;BME280;42486;47.478;19.036;2022-09-12T09:34:29;100159.31;;;20.95;50.66
56604;BME280;42486;47.478;19.036;2022-09-12T09:37:41;100165.09;;;20.54;51.75
56604;BME280;42486;47.478;19.036;2022-09-12T09:43:50;100159.41;;;20.86;51.47
56604;BME280;42486;47.478;19.036;2022-09-12T09:46:54;100158.09;;;21.12;51.45
56604;BME280;42486;47.478;19.036;2022-09-12T09:49:59;100155.22;;;21.28;50.08
56604;BME280;42486;47.478;19.036;2022-09-12T09:53:01;100168.41;;;21.22;51.91
56604;BME280;42486;47.478;19.036;2022-09-12T09:56:09;100158.97;;;20.83;51.78
56604;BME280;42486;47.478;19.036;2022-09-12T10:16:18;100159.84;;;20.90;50.63
56604;BME280;42486;47.478;19.036;2022-09-12T10:19:22;100156.41;;;20.60;52.31
56604;BME280;42486;47.478;19.036;2022-09-12T10:22:28;100157.91;;;20.39;51.96
56604;BME280;42486;47.478;19.036;2022-09-12T10:25:31;100149.19;;;20.31;53.22
56604;BME280;42486;47.478;19.036;2022-09-12T10:28:35;100152.56;;;20.10;53.89
56604;BME280;42486;47.478;19.036;2022-09-12T10:31:43;100159.69;;;20.09;54.61
56604;BME280;42486;47.478;19.036;2022-09-12T10:34:50;100154.47;;;20.01;55.17
56604;BME280;42486;47.478;19.036;2022-09-12T10:37:58;100153.78;;;20.22;54.86
56604;BME280;42486;47.478;19.036;2022-09-12T10:44:16;100155.25;;;21.50;51.21
56604;BME280;42486;47.478;19.036;2022-09-12T10:47:20;100142.37;;;21.96;50.56
56604;BME280;42486;47.478;19.036;2022-09-12T10:50:25;100143.22;;;22.53;49.84
56604;BME280;42486;47.478;19.036;2022-09-12T10:53:38;100141.03;;;22.70;48.02
56604;BME280;42486;47.478;19.036;2022-09-12T10:57:06;100134.63;;;22.23;48.72
56604;BME280;42486;47.478;19.036;2022-09-12T11:00:15;100144.06;;;21.18;49.91
56604;BME280;42486;47.478;19.036;2022-09-12T11:03:22;100136.47;;;21.15;50.62
56604;BME280;42486;47.478;19.036;2022-09-12T11:06:41;100129.69;;;20.61;51.33
56604;BME280;42486;47.478;19.036;2022-09-12T11:09:49;100140.16;;;20.40;51.27
56604;BME280;42486;47.478;19.036;2022-09-12T11:13:08;100139.72;;;20.51;51.40
56604;BME280;42486;47.478;19.036;2022-09-12T11:16:27;100144.25;;;20.42;51.13
56604;BME280;42486;47.478;19.036;2022-09-12T11:25:58;100135.56;;;20.34;51.24
56604;BME280;42486;47.478;19.036;2022-09-12T11:29:11;100134.03;;;20.24;51.54
56604;BME280;42486;47.478;19.036;2022-09-12T11:35:42;100138.91;;;19.98;52.56
56604;BME280;42486;47.478;19.036;2022-09-12T11:39:08;100129.91;;;19.84;52.48
56604;BME280;42486;47.478;19.036;2022-09-12T11:42:20;100142.31;;;19.61;53.61
56604;BME280;42486;47.478;19.036;2022-09-12T11:45:29;100144.03;;;19.99;52.98
56604;BME280;42486;47.478;19.036;2022-09-12T11:48:44;100148.31;;;20.53;51.81
56604;BME280;42486;47.478;19.036;2022-09-12T11:58:02;100136.78;;;21.27;50.95
56604;BME280;42486;47.478;19.036;2022-09-12T12:01:12;100135.63;;;21.72;49.80
56604;BME280;42486;47.478;19.036;2022-09-12T12:04:17;100119.50;;;21.52;48.31
56604;BME280;42486;47.478;19.036;2022-09-12T12:07:21;100126.34;;;20.89;50.23
56604;BME280;42486;47.478;19.036;2022-09-12T12:13:38;100117.47;;;20.37;51.30
56604;BME280;42486;47.478;19.036;2022-09-12T12:16:44;100124.03;;;20.12;53.11
56604;BME280;42486;47.478;19.036;2022-09-12T12:19:47;100120.09;;;20.22;52.48
56604;BME280;42486;47.478;19.036;2022-09-12T12:23:03;100106.47;;;20.85;50.94
56604;BME280;42486;47.478;19.036;2022-09-12T12:26:11;100099.53;;;21.20;50.45
56604;BME280;42486;47.478;19.036;2022-09-12T12:29:35;100102.09;;;21.14;49.17
56604;BME280;42486;47.478;19.036;2022-09-12T12:32:45;100106.09;;;21.24;49.82
56604;BME280;42486;47.478;19.036;2022-09-12T12:36:07;100089.47;;;21.80;49.00
56604;BME280;42486;47.478;19.036;2022-09-12T12:49:17;100093.00;;;21.23;48.28
56604;BME280;42486;47.478;19.036;2022-09-12T12:52:13;100105.25;;;21.02;49.95
56604;BME280;42486;47.478;19.036;2022-09-12T12:55:43;100100.94;;;21.38;49.02
56604;BME280;42486;47.478;19.036;2022-09-12T12:58:47;100096.03;;;21.84;47.54
56604;BME280;42486;47.478;19.036;2022-09-12T13:01:51;100091.44;;;21.71;50.68
56604;BME280;42486;47.478;19.036;2022-09-12T13:04:56;100082.75;;;21.20;48.85
56604;BME280;42486;47.478;19.036;2022-09-12T13:08:01;100087.56;;;21.09;50.61
56604;BME280;42486;47.478;19.036;2022-09-12T13:11:15;100085.03;;;21.01;50.20
56604;BME280;42486;47.478;19.036;2022-09-12T13:17:36;100098.47;;;21.00;50.16
56604;BME280;42486;47.478;19.036;2022-09-12T13:20:51;100095.00;;;20.99;50.35
56604;BME280;42486;47.478;19.036;2022-09-12T13:24:02;100092.22;;;21.07;50.00
56604;BME280;42486;47.478;19.036;2022-09-12T13:27:14;100083.91;;;21.53;48.49
56604;BME280;42486;47.478;19.036;2022-09-12T13:30:18;100077.41;;;21.56;48.50
56604;BME280;42486;47.478;19.036;2022-09-12T13:43:08;100082.09;;;20.96;48.85
56604;BME280;42486;47.478;19.036;2022-09-12T13:46:18;100073.09;;;20.97;47.90
56604;BME280;42486;47.478;19.036;2022-09-12T13:49:33;100076.84;;;21.24;47.27
56604;BME280;42486;47.478;19.036;2022-09-12T13:52:37;100071.56;;;21.46;46.96
56604;BME280;42486;47.478;19.036;2022-09-12T13:55:44;100067.56;;;21.35;46.76
56604;BME280;42486;47.478;19.036;2022-09-12T13:58:52;100063.63;;;20.88;48.43
56604;BME280;42486;47.478;19.036;2022-09-12T14:01:55;100067.00;;;20.82;47.42
56604;BME280;42486;47.478;19.036;2022-09-12T14:05:00;100069.22;;;20.78;48.69
56604;BME280;42486;47.478;19.036;2022-09-12T14:08:12;100070.66;;;20.96;48.04
56604;BME280;42486;47.478;19.036;2022-09-12T14:11:23;100069.69;;;21.03;46.40
56604;BME280;42486;47.478;19.036;2022-09-12T14:14:30;100058.47;;;21.23;46.45
56604;BME280;42486;47.478;19.036;2022-09-12T14:17:36;100067.16;;;20.95;46.53
56604;BME280;42486;47.478;19.036;2022-09-12T14:20:41;100063.81;;;20.72;47.51
56604;BME280;42486;47.478;19.036;2022-09-12T14:23:44;100060.81;;;20.75;47.60
56604;BME280;42486;47.478;19.036;2022-09-12T14:26:51;100059.72;;;21.05;47.83
56604;BME280;42486;47.478;19.036;2022-09-12T14:30:06;100060.91;;;21.24;46.86
56604;BME280;42486;47.478;19.036;2022-09-12T14:39:31;100056.75;;;21.37;44.69
56604;BME280;42486;47.478;19.036;2022-09-12T14:42:35;100057.78;;;21.36;44.14
56604;BME280;42486;47.478;19.036;2022-09-12T14:45:39;100062.38;;;21.27;42.07
56604;BME280;42486;47.478;19.036;2022-09-12T14:48:43;100054.09;;;21.37;42.47
56604;BME280;42486;47.478;19.036;2022-09-12T14:51:58;100060.59;;;21.49;42.69
56604;BME280;42486;47.478;19.036;2022-09-12T15:01:21;100054.56;;;21.40;42.19
56604;BME280;42486;47.478;19.036;2022-09-12T15:04:37;100052.97;;;21.46;42.13
56604;BME280;42486;47.478;19.036;2022-09-12T15:07:42;100055.59;;;21.24;42.39
56604;BME280;42486;47.478;19.036;2022-09-12T15:10:45;100047.88;;;21.29;43.40
56604;BME280;42486;47.478;19.036;2022-09-12T15:13:49;100039.28;;;21.27;43.50
56604;BME280;42486;47.478;19.036;2022-09-12T15:16:53;100040.81;;;21.15;43.41
56604;BME280;42486;47.478;19.036;2022-09-12T15:19:56;100062.88;;;21.16;43.16
56604;BME280;42486;47.478;19.036;2022-09-12T15:22:58;100052.12;;;21.02;43.01
56604;BME280;42486;47.478;19.036;2022-09-12T15:26:01;100047.84;;;21.01;43.60
56604;BME280;42486;47.478;19.036;2022-09-12T15:29:04;100044.28;;;20.94;42.68
56604;BME280;42486;47.478;19.036;2022-09-12T15:32:09;100044.28;;;20.94;41.99
56604;BME280;42486;47.478;19.036;2022-09-12T15:35:21;100046.34;;;20.77;42.30
56604;BME280;42486;47.478;19.036;2022-09-12T15:38:23;100049.34;;;20.74;42.13
56604;BME280;42486;47.478;19.036;2022-09-12T15:41:31;100056.22;;;20.68;41.81
56604;BME280;42486;47.478;19.036;2022-09-12T15:44:36;100050.97;;;20.54;42.35
56604;BME280;42486;47.478;19.036;2022-09-12T15:47:39;100053.25;;;20.57;42.65
56604;BME280;42486;47.478;19.036;2022-09-12T15:50:42;100049.25;;;20.53;43.19
56604;BME280;42486;47.478;19.036;2022-09-12T15:53:44;100046.53;;;20.46;43.55
56604;BME280;42486;47.478;19.036;2022-09-12T15:56:50;100048.81;;;20.34;43.73
56604;BME280;42486;47.478;19.036;2022-09-12T15:59:53;100045.44;;;20.26;44.22
56604;BME280;42486;47.478;19.036;2022-09-12T16:02:57;100037.88;;;20.22;44.64
56604;BME280;42486;47.478;19.036;2022-09-12T16:06:00;100036.31;;;20.13;44.68
56604;BME280;42486;47.478;19.036;2022-09-12T16:09:02;100048.19;;;20.02;45.43
56604;BME280;42486;47.478;19.036;2022-09-12T16:12:06;100047.81;;;19.91;45.28
56604;BME280;42486;47.478;19.036;2022-09-12T16:15:10;100051.84;;;19.87;45.82
56604;BME280;42486;47.478;19.036;2022-09-12T16:18:14;100054.84;;;19.84;45.95
56604;BME280;42486;47.478;19.036;2022-09-12T16:21:17;100055.72;;;19.76;45.40
56604;BME280;42486;47.478;19.036;2022-09-12T16:24:20;100057.81;;;19.66;45.82
56604;BME280;42486;47.478;19.036;2022-09-12T16:27:23;100061.63;;;19.63;45.91
56604;BME280;42486;47.478;19.036;2022-09-12T16:30:26;100065.34;;;19.54;46.83
56604;BME280;42486;47.478;19.036;2022-09-12T16:33:30;100064.94;;;19.42;46.40
56604;BME280;42486;47.478;19.036;2022-09-12T16:36:36;100056.88;;;19.35;46.43
56604;BME280;42486;47.478;19.036;2022-09-12T16:39:38;100054.13;;;19.29;47.44
56604;BME280;42486;47.478;19.036;2022-09-12T16:42:42;100057.34;;;19.16;47.14
56604;BME280;42486;47.478;19.036;2022-09-12T16:45:45;100050.13;;;19.10;47.49
56604;BME280;42486;47.478;19.036;2022-09-12T16:48:50;100043.06;;;19.02;47.59
56604;BME280;42486;47.478;19.036;2022-09-12T16:51:55;100039.97;;;18.90;48.42
56604;BME280;42486;47.478;19.036;2022-09-12T16:54:58;100032.25;;;18.81;48.72
56604;BME280;42486;47.478;19.036;2022-09-12T16:58:01;100041.38;;;18.70;49.60
56604;BME280;42486;47.478;19.036;2022-09-12T17:01:17;100037.13;;;18.61;50.05
56604;BME280;42486;47.478;19.036;2022-09-12T17:04:22;100041.31;;;18.47;50.42
56604;BME280;42486;47.478;19.036;2022-09-12T17:07:25;100034.25;;;18.39;50.50
56604;BME280;42486;47.478;19.036;2022-09-12T17:10:30;100045.50;;;18.33;51.28
56604;BME280;42486;47.478;19.036;2022-09-12T17:13:33;100042.06;;;18.16;52.70
56604;BME280;42486;47.478;19.036;2022-09-12T17:16:56;100055.34;;;18.00;53.12
56604;BME280;42486;47.478;19.036;2022-09-12T17:19:59;100059.81;;;17.91;54.19
56604;BME280;42486;47.478;19.036;2022-09-12T17:23:02;100055.72;;;17.80;54.09
56604;BME280;42486;47.478;19.036;2022-09-12T17:26:10;100058.81;;;17.68;54.65
56604;BME280;42486;47.478;19.036;2022-09-12T17:29:14;100062.62;;;17.57;55.00
56604;BME280;42486;47.478;19.036;2022-09-12T17:32:17;100059.16;;;17.56;53.34
56604;BME280;42486;47.478;19.036;2022-09-12T17:35:20;100064.13;;;17.51;53.20
56604;BME280;42486;47.478;19.036;2022-09-12T17:38:23;100066.09;;;17.57;53.32
56604;BME280;42486;47.478;19.036;2022-09-12T17:41:27;100060.16;;;17.55;53.12
56604;BME280;42486;47.478;19.036;2022-09-12T17:44:32;100064.78;;;17.61;52.72
56604;BME280;42486;47.478;19.036;2022-09-12T17:47:35;100061.66;;;17.58;52.74
56604;BME280;42486;47.478;19.036;2022-09-12T17:50:39;100067.75;;;17.50;52.09
56604;BME280;42486;47.478;19.036;2022-09-12T17:53:41;100078.47;;;17.49;53.31
56604;BME280;42486;47.478;19.036;2022-09-12T17:56:46;100083.75;;;17.41;53.30
56604;BME280;42486;47.478;19.036;2022-09-12T17:59:50;100084.91;;;17.30;54.29
56604;BME280;42486;47.478;19.036;2022-09-12T18:02:53;100089.69;;;17.18;53.81
56604;BME280;42486;47.478;19.036;2022-09-12T18:05:56;100093.78;;;17.12;54.09